Accueil
METAR-TAF:

METAR-TAF

Aéroports :

Siegen, Allemagne

latitude: 50-42-28N, longitude: 008-04-59E, altitude: 602 m

Observation

Le bulletin a été fait il y a 13 heures et 12 minutes, à 16:50 UTC
Vent 8 kt de nord-ouest
Température 5°C
Humidité 56%
Pression 1019 hPa
Visibilité 10 km ou plus
pas de nuages en-dessous de 1500 mètres et pas de cumulonimbus.

METAR: EDGS 071650Z 32008KT CAVOK 05/M03 Q1019

Heure: 07:02 (06:02 UTC)

Prévision

Le bulletin a été fait il y a 13 heures et 2 minutes, à 17:00 UTC
Prévision valable du 07 à 18 UTC au 08 à 03 UTC
Vent 5 kt de nord/nord-ouest
Visibilité 10 km ou plus
pas de nuages en-dessous de 1500 mètres et pas de cumulonimbus.

TAF: EDGS 071700Z 0718/0803 33005KT CAVOK

Observations et prévisions météorologiques de plus de 4000 aéroports (messages METAR et TAF).

Les stations disponibles sont représentées par des disques jaunes et rouges sur la carte.

Passer la souris dessus pour voir le nom de la station.

Cliquer dessus pour voir les observations et prévisions météorologiques.

Pour changer de carte: cliquez sur les boutons verts avec une croix noire pour zoomer, sur le bouton vert avec un tiret pour effectuer un zoom arrière, ou sur les flèches vertes pour les cartes adjacentes.


METAR-TAF: